sensor_id;sensor_type;location;lat;lon;timestamp;temperature;humidity
13606;DHT22;6874;52.084;5.090;2023-07-31T00:01:28;17.50;99.90
13606;DHT22;6874;52.084;5.090;2023-07-31T00:03:54;17.50;99.90
13606;DHT22;6874;52.084;5.090;2023-07-31T00:06:20;17.50;99.90
13606;DHT22;6874;52.084;5.090;2023-07-31T00:08:45;17.50;99.90
13606;DHT22;6874;52.084;5.090;2023-07-31T00:11:11;17.40;99.90
13606;DHT22;6874;52.084;5.090;2023-07-31T00:13:36;17.50;99.90
13606;DHT22;6874;52.084;5.090;2023-07-31T00:16:02;17.50;99.90
13606;DHT22;6874;52.084;5.090;2023-07-31T00:18:28;17.50;99.90
13606;DHT22;6874;52.084;5.090;2023-07-31T00:20:53;17.50;99.90
13606;DHT22;6874;52.084;5.090;2023-07-31T00:23:19;17.50;99.90
13606;DHT22;6874;52.084;5.090;2023-07-31T00:25:44;17.50;99.90
13606;DHT22;6874;52.084;5.090;2023-07-31T00:28:10;17.50;99.90
13606;DHT22;6874;52.084;5.090;2023-07-31T00:30:35;17.50;99.90
13606;DHT22;6874;52.084;5.090;2023-07-31T00:33:01;17.50;99.90
13606;DHT22;6874;52.084;5.090;2023-07-31T00:35:26;17.60;99.90
13606;DHT22;6874;52.084;5.090;2023-07-31T00:37:52;17.60;99.90
13606;DHT22;6874;52.084;5.090;2023-07-31T00:40:18;17.60;99.90
13606;DHT22;6874;52.084;5.090;2023-07-31T00:42:43;17.60;99.90
13606;DHT22;6874;52.084;5.090;2023-07-31T00:45:09;17.60;99.90
13606;DHT22;6874;52.084;5.090;2023-07-31T00:47:34;17.60;99.90
13606;DHT22;6874;52.084;5.090;2023-07-31T00:50:00;17.70;99.90
13606;DHT22;6874;52.084;5.090;2023-07-31T00:52:26;17.60;99.90
13606;DHT22;6874;52.084;5.090;2023-07-31T00:54:52;17.60;99.90
13606;DHT22;6874;52.084;5.090;2023-07-31T00:57:17;17.60;99.90
13606;DHT22;6874;52.084;5.090;2023-07-31T00:59:43;17.70;99.90
13606;DHT22;6874;52.084;5.090;2023-07-31T01:02:09;17.60;99.90
13606;DHT22;6874;52.084;5.090;2023-07-31T01:04:34;17.60;99.90
13606;DHT22;6874;52.084;5.090;2023-07-31T01:07:21;17.60;99.90
13606;DHT22;6874;52.084;5.090;2023-07-31T01:09:55;17.60;99.90
13606;DHT22;6874;52.084;5.090;2023-07-31T01:12:27;17.70;99.90
13606;DHT22;6874;52.084;5.090;2023-07-31T01:17:26;17.70;99.90
13606;DHT22;6874;52.084;5.090;2023-07-31T01:19:53;17.70;99.90
13606;DHT22;6874;52.084;5.090;2023-07-31T01:25:28;17.70;99.90
13606;DHT22;6874;52.084;5.090;2023-07-31T01:28:03;17.70;99.90
13606;DHT22;6874;52.084;5.090;2023-07-31T01:30:33;17.70;99.90
13606;DHT22;6874;52.084;5.090;2023-07-31T01:33:01;17.70;99.90
13606;DHT22;6874;52.084;5.090;2023-07-31T01:35:35;17.70;99.90
13606;DHT22;6874;52.084;5.090;2023-07-31T01:38:01;17.70;99.90
13606;DHT22;6874;52.084;5.090;2023-07-31T01:40:27;17.70;99.90
13606;DHT22;6874;52.084;5.090;2023-07-31T01:42:52;17.70;99.90
13606;DHT22;6874;52.084;5.090;2023-07-31T01:45:18;17.70;99.90
13606;DHT22;6874;52.084;5.090;2023-07-31T01:47:44;17.70;99.90
13606;DHT22;6874;52.084;5.090;2023-07-31T01:50:09;17.70;99.90
13606;DHT22;6874;52.084;5.090;2023-07-31T01:52:35;17.70;99.90
13606;DHT22;6874;52.084;5.090;2023-07-31T01:55:01;17.70;99.90
13606;DHT22;6874;52.084;5.090;2023-07-31T01:57:26;17.70;99.90
13606;DHT22;6874;52.084;5.090;2023-07-31T01:59:52;17.70;99.90
13606;DHT22;6874;52.084;5.090;2023-07-31T02:02:19;17.60;99.90
13606;DHT22;6874;52.084;5.090;2023-07-31T02:04:45;17.70;99.90
13606;DHT22;6874;52.084;5.090;2023-07-31T02:07:10;17.70;99.90
13606;DHT22;6874;52.084;5.090;2023-07-31T02:09:36;17.60;99.90
13606;DHT22;6874;52.084;5.090;2023-07-31T02:12:02;17.60;99.90
13606;DHT22;6874;52.084;5.090;2023-07-31T02:14:27;17.60;99.90
13606;DHT22;6874;52.084;5.090;2023-07-31T02:16:53;17.60;99.90
13606;DHT22;6874;52.084;5.090;2023-07-31T02:19:18;17.60;99.90
13606;DHT22;6874;52.084;5.090;2023-07-31T02:21:44;17.60;99.90
13606;DHT22;6874;52.084;5.090;2023-07-31T02:24:10;17.60;99.90
13606;DHT22;6874;52.084;5.090;2023-07-31T02:26:35;17.60;99.90
13606;DHT22;6874;52.084;5.090;2023-07-31T02:29:01;17.70;99.90
13606;DHT22;6874;52.084;5.090;2023-07-31T02:31:26;17.60;99.90
13606;DHT22;6874;52.084;5.090;2023-07-31T02:33:52;17.60;99.90
13606;DHT22;6874;52.084;5.090;2023-07-31T02:36:18;17.60;99.90
13606;DHT22;6874;52.084;5.090;2023-07-31T02:38:44;17.60;99.90
13606;DHT22;6874;52.084;5.090;2023-07-31T02:41:09;17.60;99.90
13606;DHT22;6874;52.084;5.090;2023-07-31T02:43:35;17.60;99.90
13606;DHT22;6874;52.084;5.090;2023-07-31T02:46:01;17.60;99.90
13606;DHT22;6874;52.084;5.090;2023-07-31T02:48:26;17.60;99.90
13606;DHT22;6874;52.084;5.090;2023-07-31T02:50:53;17.50;99.90
13606;DHT22;6874;52.084;5.090;2023-07-31T02:53:18;17.60;99.90
13606;DHT22;6874;52.084;5.090;2023-07-31T02:55:44;17.50;99.90
13606;DHT22;6874;52.084;5.090;2023-07-31T02:58:09;17.60;99.90
13606;DHT22;6874;52.084;5.090;2023-07-31T03:00:35;17.50;99.90
13606;DHT22;6874;52.084;5.090;2023-07-31T03:03:01;17.50;99.90
13606;DHT22;6874;52.084;5.090;2023-07-31T03:05:26;17.60;99.90
13606;DHT22;6874;52.084;5.090;2023-07-31T03:07:52;17.50;99.90
13606;DHT22;6874;52.084;5.090;2023-07-31T03:10:17;17.50;99.90
13606;DHT22;6874;52.084;5.090;2023-07-31T03:12:46;17.50;99.90
13606;DHT22;6874;52.084;5.090;2023-07-31T03:15:12;17.60;99.90
13606;DHT22;6874;52.084;5.090;2023-07-31T03:17:38;17.50;99.90
13606;DHT22;6874;52.084;5.090;2023-07-31T03:20:04;17.50;99.90
13606;DHT22;6874;52.084;5.090;2023-07-31T03:22:29;17.50;99.90
13606;DHT22;6874;52.084;5.090;2023-07-31T03:24:55;17.50;99.90
13606;DHT22;6874;52.084;5.090;2023-07-31T03:27:20;17.50;99.90
13606;DHT22;6874;52.084;5.090;2023-07-31T03:29:46;17.60;99.90
13606;DHT22;6874;52.084;5.090;2023-07-31T03:32:11;17.50;99.90
13606;DHT22;6874;52.084;5.090;2023-07-31T03:34:37;17.50;99.90
13606;DHT22;6874;52.084;5.090;2023-07-31T03:37:03;17.50;99.90
13606;DHT22;6874;52.084;5.090;2023-07-31T03:39:30;17.50;99.90
13606;DHT22;6874;52.084;5.090;2023-07-31T03:41:55;17.50;99.90
13606;DHT22;6874;52.084;5.090;2023-07-31T03:44:21;17.50;99.90
13606;DHT22;6874;52.084;5.090;2023-07-31T03:46:47;17.40;99.90
13606;DHT22;6874;52.084;5.090;2023-07-31T03:49:12;17.50;99.90
13606;DHT22;6874;52.084;5.090;2023-07-31T03:51:38;17.50;99.90
13606;DHT22;6874;52.084;5.090;2023-07-31T03:54:03;17.40;99.90
13606;DHT22;6874;52.084;5.090;2023-07-31T03:56:29;17.50;99.90
13606;DHT22;6874;52.084;5.090;2023-07-31T03:58:55;17.40;99.90
13606;DHT22;6874;52.084;5.090;2023-07-31T04:01:20;17.40;99.90
13606;DHT22;6874;52.084;5.090;2023-07-31T04:03:46;17.40;99.90
13606;DHT22;6874;52.084;5.090;2023-07-31T04:06:11;17.40;99.90
13606;DHT22;6874;52.084;5.090;2023-07-31T04:08:37;17.40;99.90
13606;DHT22;6874;52.084;5.090;2023-07-31T04:11:03;17.40;99.90
13606;DHT22;6874;52.084;5.090;2023-07-31T04:13:29;17.40;99.90
13606;DHT22;6874;52.084;5.090;2023-07-31T04:15:55;17.30;99.90
13606;DHT22;6874;52.084;5.090;2023-07-31T04:18:21;17.40;99.90
13606;DHT22;6874;52.084;5.090;2023-07-31T04:20:47;17.40;99.90
13606;DHT22;6874;52.084;5.090;2023-07-31T04:23:13;17.30;99.90
13606;DHT22;6874;52.084;5.090;2023-07-31T04:25:38;17.40;99.90
13606;DHT22;6874;52.084;5.090;2023-07-31T04:28:04;17.40;99.90
13606;DHT22;6874;52.084;5.090;2023-07-31T04:30:29;17.30;99.90
13606;DHT22;6874;52.084;5.090;2023-07-31T04:32:55;17.30;99.90
13606;DHT22;6874;52.084;5.090;2023-07-31T04:35:21;17.30;99.90
13606;DHT22;6874;52.084;5.090;2023-07-31T04:37:46;17.30;99.90
13606;DHT22;6874;52.084;5.090;2023-07-31T04:40:15;17.40;99.90
13606;DHT22;6874;52.084;5.090;2023-07-31T04:42:40;17.30;99.90
13606;DHT22;6874;52.084;5.090;2023-07-31T04:45:07;17.30;99.90
13606;DHT22;6874;52.084;5.090;2023-07-31T04:47:32;17.30;99.90
13606;DHT22;6874;52.084;5.090;2023-07-31T04:49:58;17.30;99.90
13606;DHT22;6874;52.084;5.090;2023-07-31T04:52:23;17.20;99.90
13606;DHT22;6874;52.084;5.090;2023-07-31T04:54:49;17.30;99.90
13606;DHT22;6874;52.084;5.090;2023-07-31T04:57:15;17.30;99.90
13606;DHT22;6874;52.084;5.090;2023-07-31T04:59:40;17.30;99.90
13606;DHT22;6874;52.084;5.090;2023-07-31T05:02:08;17.20;99.90
13606;DHT22;6874;52.084;5.090;2023-07-31T05:04:33;17.20;99.90
13606;DHT22;6874;52.084;5.090;2023-07-31T05:06:59;17.20;99.90
13606;DHT22;6874;52.084;5.090;2023-07-31T05:09:25;17.30;99.90
13606;DHT22;6874;52.084;5.090;2023-07-31T05:11:50;17.20;99.90
13606;DHT22;6874;52.084;5.090;2023-07-31T05:14:16;17.20;99.90
13606;DHT22;6874;52.084;5.090;2023-07-31T05:16:41;17.20;99.90
13606;DHT22;6874;52.084;5.090;2023-07-31T05:19:07;17.20;99.90
13606;DHT22;6874;52.084;5.090;2023-07-31T05:21:32;17.20;99.90
13606;DHT22;6874;52.084;5.090;2023-07-31T05:23:58;17.20;99.90
13606;DHT22;6874;52.084;5.090;2023-07-31T05:26:24;17.40;99.90
13606;DHT22;6874;52.084;5.090;2023-07-31T05:28:49;17.20;99.90
13606;DHT22;6874;52.084;5.090;2023-07-31T05:31:15;17.20;99.90
13606;DHT22;6874;52.084;5.090;2023-07-31T05:33:40;17.20;99.90
13606;DHT22;6874;52.084;5.090;2023-07-31T05:36:06;17.20;99.90
13606;DHT22;6874;52.084;5.090;2023-07-31T05:38:32;17.20;99.90
13606;DHT22;6874;52.084;5.090;2023-07-31T05:40:57;17.20;99.90
13606;DHT22;6874;52.084;5.090;2023-07-31T05:43:23;17.20;99.90
13606;DHT22;6874;52.084;5.090;2023-07-31T05:45:48;17.20;99.90
13606;DHT22;6874;52.084;5.090;2023-07-31T05:48:14;17.20;99.90
13606;DHT22;6874;52.084;5.090;2023-07-31T05:50:39;17.20;99.90
13606;DHT22;6874;52.084;5.090;2023-07-31T05:53:05;17.20;99.90
13606;DHT22;6874;52.084;5.090;2023-07-31T05:55:32;17.10;99.90
13606;DHT22;6874;52.084;5.090;2023-07-31T05:57:57;17.10;99.90
13606;DHT22;6874;52.084;5.090;2023-07-31T06:00:23;17.20;99.90
13606;DHT22;6874;52.084;5.090;2023-07-31T06:02:49;17.10;99.90
13606;DHT22;6874;52.084;5.090;2023-07-31T06:05:14;17.10;99.90
13606;DHT22;6874;52.084;5.090;2023-07-31T06:07:40;17.10;99.90
13606;DHT22;6874;52.084;5.090;2023-07-31T06:10:06;17.20;99.90
13606;DHT22;6874;52.084;5.090;2023-07-31T06:12:33;17.10;99.90
13606;DHT22;6874;52.084;5.090;2023-07-31T06:14:58;17.20;99.90
13606;DHT22;6874;52.084;5.090;2023-07-31T06:17:24;17.10;99.90
13606;DHT22;6874;52.084;5.090;2023-07-31T06:19:52;17.10;99.90
13606;DHT22;6874;52.084;5.090;2023-07-31T06:22:17;17.10;99.90
13606;DHT22;6874;52.084;5.090;2023-07-31T06:24:43;17.20;99.90
13606;DHT22;6874;52.084;5.090;2023-07-31T06:27:09;17.20;99.90
13606;DHT22;6874;52.084;5.090;2023-07-31T06:29:35;17.20;99.90
13606;DHT22;6874;52.084;5.090;2023-07-31T06:32:00;17.10;99.90
13606;DHT22;6874;52.084;5.090;2023-07-31T06:34:26;17.20;99.90
13606;DHT22;6874;52.084;5.090;2023-07-31T06:36:52;17.20;99.90
13606;DHT22;6874;52.084;5.090;2023-07-31T06:39:17;17.10;99.90
13606;DHT22;6874;52.084;5.090;2023-07-31T06:41:44;17.20;99.90
13606;DHT22;6874;52.084;5.090;2023-07-31T06:44:10;17.20;99.90
13606;DHT22;6874;52.084;5.090;2023-07-31T06:46:35;17.20;99.90
13606;DHT22;6874;52.084;5.090;2023-07-31T06:49:01;17.20;99.90
13606;DHT22;6874;52.084;5.090;2023-07-31T06:51:27;17.20;99.90
13606;DHT22;6874;52.084;5.090;2023-07-31T06:53:53;17.20;99.90
13606;DHT22;6874;52.084;5.090;2023-07-31T06:56:18;17.20;99.90
13606;DHT22;6874;52.084;5.090;2023-07-31T06:58:46;17.20;99.90
13606;DHT22;6874;52.084;5.090;2023-07-31T07:01:12;17.20;99.90
13606;DHT22;6874;52.084;5.090;2023-07-31T07:03:38;17.30;99.90
13606;DHT22;6874;52.084;5.090;2023-07-31T07:06:04;17.20;99.90
13606;DHT22;6874;52.084;5.090;2023-07-31T07:08:29;17.30;99.90
13606;DHT22;6874;52.084;5.090;2023-07-31T07:10:55;17.30;99.90
13606;DHT22;6874;52.084;5.090;2023-07-31T07:13:21;17.30;99.90
13606;DHT22;6874;52.084;5.090;2023-07-31T07:15:50;17.30;99.90
13606;DHT22;6874;52.084;5.090;2023-07-31T07:18:19;17.40;99.90
13606;DHT22;6874;52.084;5.090;2023-07-31T07:20:55;17.40;99.90
13606;DHT22;6874;52.084;5.090;2023-07-31T07:23:22;17.40;99.90
13606;DHT22;6874;52.084;5.090;2023-07-31T07:25:48;17.40;99.90
13606;DHT22;6874;52.084;5.090;2023-07-31T07:28:14;17.40;99.90
13606;DHT22;6874;52.084;5.090;2023-07-31T07:30:39;17.40;99.90
13606;DHT22;6874;52.084;5.090;2023-07-31T07:33:05;17.60;99.90
13606;DHT22;6874;52.084;5.090;2023-07-31T07:35:35;17.50;99.90
13606;DHT22;6874;52.084;5.090;2023-07-31T07:38:02;17.50;99.90
13606;DHT22;6874;52.084;5.090;2023-07-31T07:40:28;17.40;99.90
13606;DHT22;6874;52.084;5.090;2023-07-31T07:42:53;17.50;99.90
13606;DHT22;6874;52.084;5.090;2023-07-31T07:45:19;17.50;99.90
13606;DHT22;6874;52.084;5.090;2023-07-31T07:47:44;17.50;99.90
13606;DHT22;6874;52.084;5.090;2023-07-31T07:50:10;17.60;99.90
13606;DHT22;6874;52.084;5.090;2023-07-31T07:52:36;17.60;99.90
13606;DHT22;6874;52.084;5.090;2023-07-31T07:55:01;17.60;99.90
13606;DHT22;6874;52.084;5.090;2023-07-31T07:57:29;17.60;99.90
13606;DHT22;6874;52.084;5.090;2023-07-31T07:59:54;17.60;99.90
13606;DHT22;6874;52.084;5.090;2023-07-31T08:02:20;17.60;99.90
13606;DHT22;6874;52.084;5.090;2023-07-31T08:04:45;17.70;99.90
13606;DHT22;6874;52.084;5.090;2023-07-31T08:07:11;17.70;99.90
13606;DHT22;6874;52.084;5.090;2023-07-31T08:09:40;17.70;99.90
13606;DHT22;6874;52.084;5.090;2023-07-31T08:12:06;17.70;99.90
13606;DHT22;6874;52.084;5.090;2023-07-31T08:14:32;17.70;99.90
13606;DHT22;6874;52.084;5.090;2023-07-31T08:16:58;17.70;99.90
13606;DHT22;6874;52.084;5.090;2023-07-31T08:19:23;17.80;99.90
13606;DHT22;6874;52.084;5.090;2023-07-31T08:21:49;17.90;99.90
13606;DHT22;6874;52.084;5.090;2023-07-31T08:24:15;17.90;99.90
13606;DHT22;6874;52.084;5.090;2023-07-31T08:26:40;18.00;99.90
13606;DHT22;6874;52.084;5.090;2023-07-31T08:29:06;18.00;99.90
13606;DHT22;6874;52.084;5.090;2023-07-31T08:31:31;18.00;99.90
13606;DHT22;6874;52.084;5.090;2023-07-31T08:33:57;18.00;99.90
13606;DHT22;6874;52.084;5.090;2023-07-31T08:36:23;18.10;99.90
13606;DHT22;6874;52.084;5.090;2023-07-31T08:38:48;18.20;99.90
13606;DHT22;6874;52.084;5.090;2023-07-31T08:41:15;18.10;99.90
13606;DHT22;6874;52.084;5.090;2023-07-31T08:43:44;18.10;99.90
13606;DHT22;6874;52.084;5.090;2023-07-31T08:46:10;18.20;99.90
13606;DHT22;6874;52.084;5.090;2023-07-31T08:48:37;18.20;99.90
13606;DHT22;6874;52.084;5.090;2023-07-31T08:51:03;18.20;99.90
13606;DHT22;6874;52.084;5.090;2023-07-31T08:53:29;18.30;99.90
13606;DHT22;6874;52.084;5.090;2023-07-31T08:55:56;18.30;99.90
13606;DHT22;6874;52.084;5.090;2023-07-31T08:58:24;18.30;99.90
13606;DHT22;6874;52.084;5.090;2023-07-31T09:00:51;18.30;99.90
13606;DHT22;6874;52.084;5.090;2023-07-31T09:03:18;18.40;99.90
13606;DHT22;6874;52.084;5.090;2023-07-31T09:05:45;18.30;99.90
13606;DHT22;6874;52.084;5.090;2023-07-31T09:08:13;18.30;99.90
13606;DHT22;6874;52.084;5.090;2023-07-31T09:10:43;18.30;99.90
13606;DHT22;6874;52.084;5.090;2023-07-31T09:13:10;18.40;99.90
13606;DHT22;6874;52.084;5.090;2023-07-31T09:15:36;18.40;99.90
13606;DHT22;6874;52.084;5.090;2023-07-31T09:18:03;18.40;99.90
13606;DHT22;6874;52.084;5.090;2023-07-31T09:20:30;18.50;99.90
13606;DHT22;6874;52.084;5.090;2023-07-31T09:22:57;18.50;99.90
13606;DHT22;6874;52.084;5.090;2023-07-31T09:25:30;18.50;99.90
13606;DHT22;6874;52.084;5.090;2023-07-31T09:28:01;18.50;99.90
13606;DHT22;6874;52.084;5.090;2023-07-31T09:30:26;18.50;99.90
13606;DHT22;6874;52.084;5.090;2023-07-31T09:33:02;18.60;99.90
13606;DHT22;6874;52.084;5.090;2023-07-31T09:35:29;18.60;99.90
13606;DHT22;6874;52.084;5.090;2023-07-31T09:38:00;18.60;99.90
13606;DHT22;6874;52.084;5.090;2023-07-31T09:40:33;18.70;99.90
13606;DHT22;6874;52.084;5.090;2023-07-31T09:43:04;18.70;99.90
13606;DHT22;6874;52.084;5.090;2023-07-31T09:45:34;18.80;99.90
13606;DHT22;6874;52.084;5.090;2023-07-31T09:48:00;18.80;99.90
13606;DHT22;6874;52.084;5.090;2023-07-31T09:50:25;18.80;99.90
13606;DHT22;6874;52.084;5.090;2023-07-31T09:52:52;18.80;99.90
13606;DHT22;6874;52.084;5.090;2023-07-31T09:55:18;18.80;99.90
13606;DHT22;6874;52.084;5.090;2023-07-31T09:57:46;18.80;99.90
13606;DHT22;6874;52.084;5.090;2023-07-31T10:00:14;18.90;99.90
13606;DHT22;6874;52.084;5.090;2023-07-31T10:02:40;18.90;99.90
13606;DHT22;6874;52.084;5.090;2023-07-31T10:05:07;18.90;99.90
13606;DHT22;6874;52.084;5.090;2023-07-31T10:07:50;18.90;99.90
13606;DHT22;6874;52.084;5.090;2023-07-31T10:10:16;18.90;99.90
13606;DHT22;6874;52.084;5.090;2023-07-31T10:12:43;19.00;99.90
13606;DHT22;6874;52.084;5.090;2023-07-31T10:15:11;18.90;99.90
13606;DHT22;6874;52.084;5.090;2023-07-31T10:17:37;18.90;99.90
13606;DHT22;6874;52.084;5.090;2023-07-31T10:20:03;19.00;99.90
13606;DHT22;6874;52.084;5.090;2023-07-31T10:22:31;18.90;99.90
13606;DHT22;6874;52.084;5.090;2023-07-31T10:24:58;18.90;99.90
13606;DHT22;6874;52.084;5.090;2023-07-31T10:27:24;19.00;99.90
13606;DHT22;6874;52.084;5.090;2023-07-31T10:29:50;19.00;99.90
13606;DHT22;6874;52.084;5.090;2023-07-31T10:32:17;19.00;99.90
13606;DHT22;6874;52.084;5.090;2023-07-31T10:34:44;19.00;99.90
13606;DHT22;6874;52.084;5.090;2023-07-31T10:37:27;18.90;99.90
13606;DHT22;6874;52.084;5.090;2023-07-31T10:40:01;19.00;99.90
13606;DHT22;6874;52.084;5.090;2023-07-31T10:42:37;19.00;99.90
13606;DHT22;6874;52.084;5.090;2023-07-31T10:45:07;19.00;99.90
13606;DHT22;6874;52.084;5.090;2023-07-31T10:47:43;19.00;99.90
13606;DHT22;6874;52.084;5.090;2023-07-31T10:50:22;19.00;99.90
13606;DHT22;6874;52.084;5.090;2023-07-31T10:52:54;19.00;99.90
13606;DHT22;6874;52.084;5.090;2023-07-31T10:55:26;19.00;99.90
13606;DHT22;6874;52.084;5.090;2023-07-31T10:58:08;19.10;99.90
13606;DHT22;6874;52.084;5.090;2023-07-31T11:00:37;19.10;99.90
13606;DHT22;6874;52.084;5.090;2023-07-31T11:03:13;19.10;99.90
13606;DHT22;6874;52.084;5.090;2023-07-31T11:06:03;19.10;99.90
13606;DHT22;6874;52.084;5.090;2023-07-31T11:08:33;19.10;99.90
13606;DHT22;6874;52.084;5.090;2023-07-31T11:16:12;19.10;99.90
13606;DHT22;6874;52.084;5.090;2023-07-31T11:18:45;19.10;99.90
13606;DHT22;6874;52.084;5.090;2023-07-31T11:21:19;19.10;99.90
13606;DHT22;6874;52.084;5.090;2023-07-31T11:23:50;19.20;99.90
13606;DHT22;6874;52.084;5.090;2023-07-31T11:26:17;19.10;99.90
13606;DHT22;6874;52.084;5.090;2023-07-31T11:28:43;19.10;99.90
13606;DHT22;6874;52.084;5.090;2023-07-31T11:31:10;19.20;99.90
13606;DHT22;6874;52.084;5.090;2023-07-31T11:33:36;19.10;99.90
13606;DHT22;6874;52.084;5.090;2023-07-31T11:36:02;19.10;99.90
13606;DHT22;6874;52.084;5.090;2023-07-31T11:38:29;19.10;99.90
13606;DHT22;6874;52.084;5.090;2023-07-31T11:41:00;19.20;99.90
13606;DHT22;6874;52.084;5.090;2023-07-31T11:43:27;19.10;99.90
13606;DHT22;6874;52.084;5.090;2023-07-31T11:45:56;19.20;99.90
13606;DHT22;6874;52.084;5.090;2023-07-31T11:48:27;19.10;99.90
13606;DHT22;6874;52.084;5.090;2023-07-31T11:50:55;19.10;99.90
13606;DHT22;6874;52.084;5.090;2023-07-31T11:53:39;19.10;99.90
13606;DHT22;6874;52.084;5.090;2023-07-31T11:56:07;19.10;99.90
13606;DHT22;6874;52.084;5.090;2023-07-31T11:58:35;19.10;99.90
13606;DHT22;6874;52.084;5.090;2023-07-31T12:01:02;19.10;99.90
13606;DHT22;6874;52.084;5.090;2023-07-31T12:03:28;19.20;99.90
13606;DHT22;6874;52.084;5.090;2023-07-31T12:05:54;19.20;99.90
13606;DHT22;6874;52.084;5.090;2023-07-31T12:08:24;19.20;99.90
13606;DHT22;6874;52.084;5.090;2023-07-31T12:10:53;19.10;99.90
13606;DHT22;6874;52.084;5.090;2023-07-31T12:13:26;19.10;99.90
13606;DHT22;6874;52.084;5.090;2023-07-31T12:16:00;19.20;99.90
13606;DHT22;6874;52.084;5.090;2023-07-31T12:18:30;19.20;99.90
13606;DHT22;6874;52.084;5.090;2023-07-31T12:21:00;19.20;99.90
13606;DHT22;6874;52.084;5.090;2023-07-31T12:23:30;19.20;99.90
13606;DHT22;6874;52.084;5.090;2023-07-31T12:26:23;19.20;99.90
13606;DHT22;6874;52.084;5.090;2023-07-31T12:28:50;19.20;99.90
13606;DHT22;6874;52.084;5.090;2023-07-31T12:31:21;19.20;99.90
13606;DHT22;6874;52.084;5.090;2023-07-31T12:33:49;19.20;99.90
13606;DHT22;6874;52.084;5.090;2023-07-31T12:36:17;19.20;99.90
13606;DHT22;6874;52.084;5.090;2023-07-31T12:38:44;19.20;99.90
13606;DHT22;6874;52.084;5.090;2023-07-31T12:41:10;19.20;99.90
13606;DHT22;6874;52.084;5.090;2023-07-31T12:43:38;19.20;99.90
13606;DHT22;6874;52.084;5.090;2023-07-31T12:46:04;19.20;99.90
13606;DHT22;6874;52.084;5.090;2023-07-31T12:48:31;19.20;99.90
13606;DHT22;6874;52.084;5.090;2023-07-31T12:50:57;19.20;99.90
13606;DHT22;6874;52.084;5.090;2023-07-31T12:53:23;19.30;99.90
13606;DHT22;6874;52.084;5.090;2023-07-31T12:55:48;19.30;99.90
13606;DHT22;6874;52.084;5.090;2023-07-31T12:58:14;19.30;99.90
13606;DHT22;6874;52.084;5.090;2023-07-31T13:00:39;19.30;99.90
13606;DHT22;6874;52.084;5.090;2023-07-31T13:03:05;19.30;99.90
13606;DHT22;6874;52.084;5.090;2023-07-31T13:05:31;19.30;99.90
13606;DHT22;6874;52.084;5.090;2023-07-31T13:07:56;19.30;99.90
13606;DHT22;6874;52.084;5.090;2023-07-31T13:10:23;19.30;99.90
13606;DHT22;6874;52.084;5.090;2023-07-31T13:12:49;19.40;99.90
13606;DHT22;6874;52.084;5.090;2023-07-31T13:15:14;19.40;99.90
13606;DHT22;6874;52.084;5.090;2023-07-31T13:17:40;19.40;99.90
13606;DHT22;6874;52.084;5.090;2023-07-31T13:20:06;19.40;99.90
13606;DHT22;6874;52.084;5.090;2023-07-31T13:22:32;19.40;99.90
13606;DHT22;6874;52.084;5.090;2023-07-31T13:24:58;19.40;99.90
13606;DHT22;6874;52.084;5.090;2023-07-31T13:27:23;19.40;99.90
13606;DHT22;6874;52.084;5.090;2023-07-31T13:29:50;19.40;99.90
13606;DHT22;6874;52.084;5.090;2023-07-31T13:32:16;19.50;99.90
13606;DHT22;6874;52.084;5.090;2023-07-31T13:34:42;19.50;99.90
13606;DHT22;6874;52.084;5.090;2023-07-31T13:37:08;19.50;99.90
13606;DHT22;6874;52.084;5.090;2023-07-31T13:39:34;19.50;99.90
13606;DHT22;6874;52.084;5.090;2023-07-31T13:42:00;19.50;99.90
13606;DHT22;6874;52.084;5.090;2023-07-31T13:44:26;19.50;99.90
13606;DHT22;6874;52.084;5.090;2023-07-31T13:46:52;19.50;99.90
13606;DHT22;6874;52.084;5.090;2023-07-31T13:49:17;19.50;99.90
13606;DHT22;6874;52.084;5.090;2023-07-31T13:51:43;19.60;99.90
13606;DHT22;6874;52.084;5.090;2023-07-31T13:54:08;19.70;99.90
13606;DHT22;6874;52.084;5.090;2023-07-31T13:56:36;19.60;99.90
13606;DHT22;6874;52.084;5.090;2023-07-31T13:59:02;19.50;99.90
13606;DHT22;6874;52.084;5.090;2023-07-31T14:01:27;19.60;99.90
13606;DHT22;6874;52.084;5.090;2023-07-31T14:03:53;19.60;99.90
13606;DHT22;6874;52.084;5.090;2023-07-31T14:06:19;19.50;99.90
13606;DHT22;6874;52.084;5.090;2023-07-31T14:08:45;19.50;99.90
13606;DHT22;6874;52.084;5.090;2023-07-31T14:11:10;19.50;99.90
13606;DHT22;6874;52.084;5.090;2023-07-31T14:13:36;19.60;99.90
13606;DHT22;6874;52.084;5.090;2023-07-31T14:16:01;19.50;99.90
13606;DHT22;6874;52.084;5.090;2023-07-31T14:18:27;19.50;99.90
13606;DHT22;6874;52.084;5.090;2023-07-31T14:20:52;19.60;99.90
13606;DHT22;6874;52.084;5.090;2023-07-31T14:23:18;19.60;99.90
13606;DHT22;6874;52.084;5.090;2023-07-31T14:25:45;19.60;99.90
13606;DHT22;6874;52.084;5.090;2023-07-31T14:28:11;19.60;99.90
13606;DHT22;6874;52.084;5.090;2023-07-31T14:30:36;19.60;99.90
13606;DHT22;6874;52.084;5.090;2023-07-31T14:33:02;19.60;99.90
13606;DHT22;6874;52.084;5.090;2023-07-31T14:35:28;19.60;99.90
13606;DHT22;6874;52.084;5.090;2023-07-31T14:37:53;19.60;99.90
13606;DHT22;6874;52.084;5.090;2023-07-31T14:40:19;19.60;99.90
13606;DHT22;6874;52.084;5.090;2023-07-31T14:42:45;19.60;99.90
13606;DHT22;6874;52.084;5.090;2023-07-31T14:45:11;19.60;99.90
13606;DHT22;6874;52.084;5.090;2023-07-31T14:47:37;19.50;99.90
13606;DHT22;6874;52.084;5.090;2023-07-31T14:50:03;19.50;99.90
13606;DHT22;6874;52.084;5.090;2023-07-31T14:52:29;19.60;99.90
13606;DHT22;6874;52.084;5.090;2023-07-31T14:54:54;19.50;99.90
13606;DHT22;6874;52.084;5.090;2023-07-31T14:57:20;19.50;99.90
13606;DHT22;6874;52.084;5.090;2023-07-31T14:59:46;19.50;99.90
13606;DHT22;6874;52.084;5.090;2023-07-31T15:02:12;19.50;99.90
13606;DHT22;6874;52.084;5.090;2023-07-31T15:04:38;19.50;99.90
13606;DHT22;6874;52.084;5.090;2023-07-31T15:07:04;19.40;99.90
13606;DHT22;6874;52.084;5.090;2023-07-31T15:09:29;19.40;99.90
13606;DHT22;6874;52.084;5.090;2023-07-31T15:11:56;19.40;99.90
13606;DHT22;6874;52.084;5.090;2023-07-31T15:14:22;19.40;99.90
13606;DHT22;6874;52.084;5.090;2023-07-31T15:16:48;19.40;99.90
13606;DHT22;6874;52.084;5.090;2023-07-31T15:19:14;19.40;99.90
13606;DHT22;6874;52.084;5.090;2023-07-31T15:21:40;19.40;99.90
13606;DHT22;6874;52.084;5.090;2023-07-31T15:24:06;19.40;99.90
13606;DHT22;6874;52.084;5.090;2023-07-31T15:26:31;19.40;99.90
13606;DHT22;6874;52.084;5.090;2023-07-31T15:29:02;19.40;99.90
13606;DHT22;6874;52.084;5.090;2023-07-31T15:31:31;19.30;99.90
13606;DHT22;6874;52.084;5.090;2023-07-31T15:33:56;19.30;99.90
13606;DHT22;6874;52.084;5.090;2023-07-31T15:36:22;19.30;99.90
13606;DHT22;6874;52.084;5.090;2023-07-31T15:38:48;19.30;99.90
13606;DHT22;6874;52.084;5.090;2023-07-31T15:41:17;19.20;99.90
13606;DHT22;6874;52.084;5.090;2023-07-31T15:43:42;19.30;99.90
13606;DHT22;6874;52.084;5.090;2023-07-31T15:46:08;19.30;99.90
13606;DHT22;6874;52.084;5.090;2023-07-31T15:48:34;19.20;99.90
13606;DHT22;6874;52.084;5.090;2023-07-31T15:50:59;19.30;99.90
13606;DHT22;6874;52.084;5.090;2023-07-31T15:53:26;19.20;99.90